createdAt,value
2018-06-05T00:01:52.932Z,56.50
2018-06-05T00:06:56.208Z,56.30
2018-06-05T00:11:59.487Z,56.60
2018-06-05T00:17:02.736Z,56.70
2018-06-05T00:22:06.008Z,56.70
2018-06-05T00:27:09.243Z,56.70
2018-06-05T00:32:12.495Z,56.70
2018-06-05T00:37:15.736Z,56.70
2018-06-05T00:42:18.964Z,56.70
2018-06-05T00:47:22.220Z,56.70
2018-06-05T00:52:25.479Z,56.80
2018-06-05T00:57:28.719Z,56.80
2018-06-05T01:02:31.970Z,56.90
2018-06-05T01:07:35.267Z,56.90
2018-06-05T01:12:38.575Z,56.90
2018-06-05T01:17:41.832Z,56.90
2018-06-05T01:22:45.104Z,56.90
2018-06-05T01:27:48.432Z,56.90
2018-06-05T01:32:51.659Z,56.90
2018-06-05T01:37:54.868Z,57.10
2018-06-05T01:42:58.089Z,57.10
2018-06-05T01:48:01.343Z,57.10
2018-06-05T01:53:04.677Z,57.00
2018-06-05T01:58:07.908Z,56.80
2018-06-05T02:03:11.116Z,56.70
2018-06-05T02:08:14.372Z,57.10
2018-06-05T02:13:17.676Z,57.00
2018-06-05T02:18:20.903Z,57.20
2018-06-05T02:23:24.167Z,57.00
2018-06-05T02:28:27.399Z,57.10
2018-06-05T02:33:30.627Z,57.20
2018-06-05T02:38:33.878Z,57.30
2018-06-05T02:43:37.092Z,57.30
2018-06-05T02:48:40.319Z,57.00
2018-06-05T02:53:43.552Z,57.40
2018-06-05T02:58:46.775Z,57.30
2018-06-05T03:03:50.022Z,57.40
2018-06-05T03:08:53.310Z,57.40
2018-06-05T03:13:56.590Z,57.50
2018-06-05T03:18:59.859Z,57.30
2018-06-05T03:24:03.107Z,57.50
2018-06-05T03:29:06.388Z,57.60
2018-06-05T03:34:09.691Z,57.40
2018-06-05T03:39:13.031Z,57.50
2018-06-05T03:44:16.283Z,57.50
2018-06-05T03:49:19.589Z,57.60
2018-06-05T03:59:25.845Z,57.60
2018-06-05T04:04:29.146Z,57.50
2018-06-05T04:09:32.427Z,57.80
2018-06-05T04:14:35.679Z,57.60
2018-06-05T04:19:38.931Z,57.80
2018-06-05T04:24:42.223Z,57.90
2018-06-05T04:29:45.515Z,57.80
2018-06-05T04:34:48.804Z,57.80
2018-06-05T04:39:52.947Z,58.10
2018-06-05T04:44:56.200Z,57.80
2018-06-05T04:49:59.556Z,57.90
2018-06-05T04:55:02.807Z,57.80
2018-06-05T05:00:06.090Z,57.80
2018-06-05T05:05:09.325Z,57.70
2018-06-05T05:10:12.595Z,57.90
2018-06-05T05:15:15.839Z,58.00
2018-06-05T05:20:19.092Z,58.10
2018-06-05T05:25:22.374Z,58.00
2018-06-05T05:30:25.623Z,57.70
2018-06-05T05:35:28.874Z,57.70
2018-06-05T05:40:32.140Z,57.90
2018-06-05T05:45:35.399Z,57.90
2018-06-05T05:50:38.687Z,57.80
2018-06-05T05:55:41.932Z,57.90
2018-06-05T06:00:45.187Z,57.80
2018-06-05T06:05:48.443Z,57.90
2018-06-05T06:10:51.750Z,57.90
2018-06-05T06:15:54.968Z,57.80
2018-06-05T06:20:58.208Z,58.00
2018-06-05T06:26:01.603Z,57.80
2018-06-05T06:31:04.767Z,57.80
2018-06-05T06:36:08.052Z,57.80
2018-06-05T06:41:11.283Z,57.90
2018-06-05T06:46:14.523Z,57.90
2018-06-05T06:51:17.795Z,57.70
2018-06-05T06:56:21.080Z,57.80
2018-06-05T07:01:24.339Z,57.50
2018-06-05T07:06:27.566Z,57.80
2018-06-05T07:11:30.809Z,57.60
2018-06-05T07:16:34.039Z,57.90
2018-06-05T07:21:37.264Z,57.70
2018-06-05T07:26:40.499Z,57.70
2018-06-05T07:31:43.736Z,58.00
2018-06-05T07:36:46.943Z,57.90
2018-06-05T07:41:50.192Z,57.90
2018-06-05T07:46:53.420Z,57.60
2018-06-05T07:51:56.640Z,57.60
2018-06-05T07:56:59.863Z,58.00
2018-06-05T08:02:03.124Z,57.50
2018-06-05T08:07:06.386Z,57.70
2018-06-05T08:12:09.639Z,57.10
2018-06-05T08:17:12.908Z,57.70
2018-06-05T08:22:16.183Z,57.90
2018-06-05T08:27:19.454Z,57.40
2018-06-05T08:32:22.736Z,57.60
2018-06-05T08:37:26.007Z,57.50
2018-06-05T08:42:29.260Z,57.30
2018-06-05T08:47:32.519Z,57.40
2018-06-05T08:52:36.266Z,57.00
2018-06-05T08:57:39.551Z,57.40
2018-06-05T09:02:42.799Z,57.20
2018-06-05T09:07:46.051Z,58.10
2018-06-05T09:12:49.341Z,57.50
2018-06-05T09:17:52.531Z,57.30
2018-06-05T09:22:55.772Z,58.00
2018-06-05T09:27:58.991Z,57.40
2018-06-05T09:33:02.235Z,56.90
2018-06-05T09:38:05.459Z,56.90
2018-06-05T09:43:08.700Z,56.90
2018-06-05T09:48:11.919Z,57.10
2018-06-05T09:53:15.194Z,56.90
2018-06-05T09:58:18.520Z,57.00
2018-06-05T10:03:21.861Z,57.00
2018-06-05T10:08:25.117Z,57.30
2018-06-05T10:13:28.359Z,56.70
2018-06-05T10:18:31.590Z,56.60
2018-06-05T10:23:34.859Z,56.90
2018-06-05T10:28:38.077Z,56.60
2018-06-05T10:33:41.323Z,56.10
2018-06-05T10:38:44.536Z,56.70
2018-06-05T10:43:47.779Z,56.20
2018-06-05T10:48:50.996Z,56.30
2018-06-05T10:53:54.211Z,56.40
2018-06-05T10:58:57.447Z,55.60
2018-06-05T11:04:00.717Z,56.60
2018-06-05T11:09:06.047Z,56.80
2018-06-05T11:14:09.336Z,56.70
2018-06-05T11:19:12.608Z,56.10
2018-06-05T11:24:15.879Z,55.80
2018-06-05T11:29:19.142Z,56.30
2018-06-05T11:34:22.532Z,56.20
2018-06-05T11:44:28.818Z,55.80
2018-06-05T11:49:32.070Z,56.70
2018-06-05T11:54:35.378Z,55.70
2018-06-05T11:59:38.623Z,55.70
2018-06-05T12:04:41.896Z,56.10
2018-06-05T12:09:45.157Z,55.50
2018-06-05T12:14:48.383Z,56.20
2018-06-05T12:19:51.597Z,56.00
2018-06-05T12:24:54.833Z,55.80
2018-06-05T12:29:58.067Z,55.90
2018-06-05T12:35:01.295Z,55.60
2018-06-05T12:40:04.539Z,55.80
2018-06-05T12:45:07.755Z,56.00
2018-06-05T12:50:11.021Z,56.00
2018-06-05T12:55:14.296Z,55.30
2018-06-05T13:00:17.543Z,55.70
2018-06-05T13:05:20.851Z,55.60
2018-06-05T13:10:24.095Z,55.80
2018-06-05T13:15:27.372Z,55.70
2018-06-05T13:20:30.636Z,54.60
2018-06-05T13:25:33.904Z,55.50
2018-06-05T13:30:37.171Z,54.40
2018-06-05T13:35:40.436Z,55.50
2018-06-05T13:40:43.712Z,55.60
2018-06-05T13:45:47.047Z,55.30
2018-06-05T13:50:50.336Z,54.80
2018-06-05T13:55:53.643Z,55.50
2018-06-05T14:00:56.915Z,55.60
2018-06-05T14:06:00.196Z,54.90
2018-06-05T14:11:03.499Z,55.00
2018-06-05T14:16:06.767Z,55.60
2018-06-05T14:26:13.027Z,55.90
2018-06-05T14:31:16.308Z,54.80
2018-06-05T14:36:19.584Z,55.60
2018-06-05T14:41:23.228Z,54.70
2018-06-05T14:46:26.566Z,55.50
2018-06-05T14:51:29.811Z,56.00
2018-06-05T14:56:33.096Z,55.50
2018-06-05T15:01:36.405Z,54.40
2018-06-05T15:06:39.684Z,56.10
2018-06-05T15:11:42.948Z,54.50
2018-06-05T15:16:46.191Z,55.10
2018-06-05T15:21:49.399Z,55.30
2018-06-05T15:26:52.648Z,55.70
2018-06-05T15:31:55.896Z,55.70
2018-06-05T15:36:59.115Z,54.80
2018-06-05T15:42:02.396Z,55.30
2018-06-05T15:47:05.635Z,55.80
2018-06-05T15:52:08.932Z,55.90
2018-06-05T15:57:12.203Z,55.80
2018-06-05T16:07:18.483Z,55.40
2018-06-05T16:12:21.759Z,55.30
2018-06-05T16:17:25.026Z,55.30
2018-06-05T16:22:28.247Z,55.70
2018-06-05T16:27:31.568Z,55.10
2018-06-05T16:32:34.847Z,54.70
2018-06-05T16:37:38.196Z,56.30
2018-06-05T16:42:41.564Z,56.80
2018-06-05T16:47:45.078Z,55.40
2018-06-05T16:52:48.343Z,55.50
2018-06-05T16:57:51.575Z,55.00
2018-06-05T17:02:54.836Z,55.00
2018-06-05T17:07:58.119Z,55.90
2018-06-05T17:13:01.416Z,54.70
2018-06-05T17:18:04.635Z,54.60
2018-06-05T17:23:07.864Z,54.70
2018-06-05T17:28:11.100Z,55.10
2018-06-05T17:33:14.320Z,54.70
2018-06-05T17:38:17.555Z,55.10
2018-06-05T17:43:20.772Z,54.80
2018-06-05T17:48:23.995Z,54.90
2018-06-05T17:53:27.231Z,55.00
2018-06-05T17:58:30.451Z,55.00
2018-06-05T18:03:33.683Z,55.00
2018-06-05T18:08:36.927Z,55.40
2018-06-05T18:13:40.152Z,54.70
2018-06-05T18:18:43.369Z,54.70
2018-06-05T18:23:46.602Z,55.00
2018-06-05T18:28:49.832Z,54.90
2018-06-05T18:33:53.063Z,55.00
2018-06-05T18:38:56.276Z,55.10
2018-06-05T18:43:59.512Z,54.90
2018-06-05T18:49:02.735Z,54.90
2018-06-05T18:54:05.967Z,54.90
2018-06-05T18:59:09.179Z,54.80
2018-06-05T19:04:12.404Z,54.90
2018-06-05T19:09:15.660Z,55.30
2018-06-05T19:14:18.926Z,55.30
2018-06-05T19:19:22.152Z,55.40
2018-06-05T19:24:25.395Z,55.40
2018-06-05T19:29:28.710Z,55.30
2018-06-05T19:34:31.847Z,55.50
2018-06-05T19:39:35.136Z,55.20
2018-06-05T19:44:38.350Z,55.40
2018-06-05T19:49:41.592Z,55.40
2018-06-05T19:54:44.824Z,55.40
2018-06-05T19:59:48.031Z,55.30
2018-06-05T20:04:51.239Z,55.10
2018-06-05T20:09:54.524Z,55.30
2018-06-05T20:14:57.843Z,55.30
2018-06-05T20:20:01.106Z,55.30
2018-06-05T20:25:04.462Z,55.20
2018-06-05T20:35:10.744Z,55.10
2018-06-05T20:40:13.991Z,55.10
2018-06-05T20:45:17.245Z,55.20
2018-06-05T20:50:20.484Z,55.00
2018-06-05T20:55:23.734Z,55.40
2018-06-05T21:00:26.986Z,55.70
2018-06-05T21:05:30.251Z,55.70
2018-06-05T21:10:33.508Z,55.40
2018-06-05T21:15:36.736Z,55.80
2018-06-05T21:20:39.955Z,55.70
2018-06-05T21:25:43.201Z,56.00
2018-06-05T21:30:46.447Z,55.80
2018-06-05T21:35:49.676Z,56.00
2018-06-05T21:40:52.904Z,56.10
2018-06-05T21:45:56.104Z,56.10
2018-06-05T21:50:59.395Z,56.10
2018-06-05T21:56:02.600Z,56.20
2018-06-05T22:01:05.851Z,56.40
2018-06-05T22:06:09.111Z,56.30
2018-06-05T22:11:12.370Z,56.00
2018-06-05T22:16:15.645Z,56.40
2018-06-05T22:21:18.894Z,56.50
2018-06-05T22:26:22.140Z,56.40
2018-06-05T22:31:25.376Z,56.20
2018-06-05T22:36:28.643Z,56.60
2018-06-05T22:41:31.891Z,56.50
2018-06-05T22:46:35.135Z,56.50
2018-06-05T22:51:38.391Z,56.30
2018-06-05T22:56:41.645Z,56.40
2018-06-05T23:01:44.903Z,56.30
2018-06-05T23:06:48.175Z,56.90
2018-06-05T23:11:51.416Z,56.40
2018-06-05T23:16:54.692Z,56.50
2018-06-05T23:27:00.935Z,56.60
2018-06-05T23:32:04.176Z,56.90
2018-06-05T23:37:07.417Z,56.50
2018-06-05T23:42:10.680Z,56.50
2018-06-05T23:47:13.959Z,56.70
2018-06-05T23:52:17.215Z,56.60
2018-06-05T23:57:20.471Z,57.30
